createdAt,value
2024-02-01T00:02:03.356Z,27.80
2024-02-01T00:04:29.929Z,28.70
2024-02-01T00:06:56.611Z,28.30
2024-02-01T00:09:23.291Z,27.90
2024-02-01T00:11:49.881Z,25.70
2024-02-01T00:14:16.477Z,24.40
2024-02-01T00:16:43.006Z,24.00
2024-02-01T00:19:09.651Z,24.20
2024-02-01T00:21:36.476Z,23.60
2024-02-01T00:24:03.066Z,24.60
2024-02-01T00:26:29.737Z,24.40
2024-02-01T00:28:56.213Z,24.30
2024-02-01T00:31:22.632Z,22.90
2024-02-01T00:33:49.246Z,23.60
2024-02-01T00:36:15.994Z,24.20
2024-02-01T00:38:42.463Z,22.70
2024-02-01T00:41:09.266Z,23.70
2024-02-01T00:43:35.658Z,23.60
2024-02-01T00:46:02.126Z,23.40
2024-02-01T00:48:28.761Z,22.60
2024-02-01T00:50:55.243Z,23.90
2024-02-01T00:53:21.837Z,25.00
2024-02-01T00:55:48.471Z,25.70
2024-02-01T00:58:15.006Z,24.20
2024-02-01T01:00:41.650Z,24.80
2024-02-01T01:03:08.464Z,25.90
2024-02-01T01:05:34.954Z,24.50
2024-02-01T01:08:01.707Z,23.90
2024-02-01T01:10:28.705Z,23.30
2024-02-01T01:12:55.170Z,24.50
2024-02-01T01:15:21.808Z,23.90
2024-02-01T01:17:48.590Z,24.60
2024-02-01T01:20:15.415Z,24.20
2024-02-01T01:22:42.434Z,25.10
2024-02-01T01:25:09.041Z,24.80
2024-02-01T01:27:35.572Z,26.10
2024-02-01T01:30:02.046Z,26.30
2024-02-01T01:32:28.650Z,26.00
2024-02-01T01:34:55.222Z,27.50
2024-02-01T01:37:21.717Z,25.30
2024-02-01T01:39:48.243Z,27.10
2024-02-01T01:42:14.812Z,26.50
2024-02-01T01:44:41.416Z,26.00
2024-02-01T01:47:07.984Z,25.50
2024-02-01T01:49:34.611Z,27.40
2024-02-01T01:52:01.158Z,26.90
2024-02-01T01:54:28.106Z,27.50
2024-02-01T01:56:54.576Z,27.90
2024-02-01T01:59:21.037Z,27.80
2024-02-01T02:01:47.490Z,30.40
2024-02-01T02:04:13.951Z,30.70
2024-02-01T02:06:40.503Z,30.10
2024-02-01T02:09:07.137Z,30.10
2024-02-01T02:11:33.658Z,30.80
2024-02-01T02:14:00.237Z,29.90
2024-02-01T02:16:26.779Z,33.20
2024-02-01T02:18:53.403Z,30.70
2024-02-01T02:21:20.390Z,30.30
2024-02-01T02:23:47.024Z,33.20
2024-02-01T02:26:13.436Z,33.50
2024-02-01T02:28:39.999Z,33.00
2024-02-01T02:31:06.624Z,33.10
2024-02-01T02:33:33.456Z,33.10
2024-02-01T02:36:00.131Z,33.80
2024-02-01T02:38:27.020Z,32.70
2024-02-01T02:40:53.651Z,32.90
2024-02-01T02:43:20.206Z,32.40
2024-02-01T02:45:46.860Z,32.70
2024-02-01T02:48:13.612Z,33.00
2024-02-01T02:50:40.228Z,34.30
2024-02-01T02:53:06.837Z,36.40
2024-02-01T02:55:33.255Z,34.40
2024-02-01T02:57:59.809Z,35.70
2024-02-01T03:00:26.442Z,34.80
2024-02-01T03:02:53.215Z,34.40
2024-02-01T03:05:19.824Z,34.30
2024-02-01T03:07:46.354Z,33.40
2024-02-01T03:10:12.896Z,31.80
2024-02-01T03:12:39.303Z,32.10
2024-02-01T03:15:05.755Z,32.90
2024-02-01T03:17:32.213Z,32.20
2024-02-01T03:19:58.750Z,32.00
2024-02-01T03:22:25.182Z,34.10
2024-02-01T03:24:51.790Z,34.00
2024-02-01T03:27:18.321Z,33.70
2024-02-01T03:29:45.378Z,33.70
2024-02-01T03:32:12.165Z,35.30
2024-02-01T03:34:38.650Z,33.10
2024-02-01T03:37:05.178Z,32.70
2024-02-01T03:39:31.719Z,32.60
2024-02-01T03:41:58.186Z,31.40
2024-02-01T03:44:24.792Z,32.30
2024-02-01T03:46:51.332Z,32.10
2024-02-01T03:49:18.030Z,30.20
2024-02-01T03:51:44.649Z,30.20
2024-02-01T03:54:11.394Z,31.80
2024-02-01T03:56:38.196Z,31.80
2024-02-01T03:59:04.822Z,31.60
2024-02-01T04:01:31.690Z,28.50
2024-02-01T04:03:58.232Z,28.00
2024-02-01T04:06:24.972Z,29.40
2024-02-01T04:08:51.634Z,27.40
2024-02-01T04:11:18.201Z,26.50
2024-02-01T04:13:44.672Z,25.80
2024-02-01T04:16:11.196Z,26.80
2024-02-01T04:18:37.722Z,26.60
2024-02-01T04:21:04.377Z,27.10
2024-02-01T04:23:30.977Z,27.00
2024-02-01T04:25:57.516Z,27.90
2024-02-01T04:28:24.086Z,27.70
2024-02-01T04:30:50.684Z,26.00
2024-02-01T04:33:17.324Z,26.70
2024-02-01T04:35:43.969Z,26.50
2024-02-01T04:38:10.380Z,25.30
2024-02-01T04:40:36.822Z,26.20
2024-02-01T04:43:03.349Z,26.60
2024-02-01T04:45:29.987Z,26.90
2024-02-01T04:47:56.573Z,26.70
2024-02-01T04:50:23.172Z,27.80
2024-02-01T04:52:49.693Z,28.40
2024-02-01T04:55:16.181Z,28.60
2024-02-01T04:57:42.762Z,27.60
2024-02-01T05:00:09.319Z,27.20
2024-02-01T05:02:35.890Z,27.40
2024-02-01T05:05:02.477Z,26.70
2024-02-01T05:07:28.946Z,26.40
2024-02-01T05:09:55.541Z,25.70
2024-02-01T05:12:22.126Z,26.50
2024-02-01T05:14:48.778Z,26.00
2024-02-01T05:17:15.357Z,25.80
2024-02-01T05:19:41.904Z,25.40
2024-02-01T05:22:08.664Z,26.70
2024-02-01T05:24:35.370Z,25.80
2024-02-01T05:27:01.916Z,26.90
2024-02-01T05:29:28.448Z,24.90
2024-02-01T05:31:54.980Z,23.40
2024-02-01T05:34:21.583Z,24.00
2024-02-01T05:36:48.398Z,23.00
2024-02-01T05:39:14.931Z,22.80
2024-02-01T05:41:41.537Z,22.70
2024-02-01T05:44:08.059Z,23.00
2024-02-01T05:46:34.514Z,23.40
2024-02-01T05:49:01.176Z,24.30
2024-02-01T05:51:27.767Z,25.10
2024-02-01T05:53:54.321Z,24.00
2024-02-01T05:56:20.844Z,24.30
2024-02-01T05:58:47.285Z,25.00
2024-02-01T06:01:13.737Z,22.90
2024-02-01T06:03:40.279Z,23.80
2024-02-01T06:06:06.943Z,22.40
2024-02-01T06:08:33.609Z,22.30
2024-02-01T06:11:00.230Z,23.50
2024-02-01T06:13:26.695Z,21.80
2024-02-01T06:15:53.305Z,22.50
2024-02-01T06:18:19.910Z,23.60
2024-02-01T06:20:46.693Z,24.80
2024-02-01T06:23:13.125Z,24.40
2024-02-01T06:25:39.601Z,27.40
2024-02-01T06:28:06.177Z,24.80
2024-02-01T06:30:32.643Z,25.40
2024-02-01T06:32:59.200Z,25.40
2024-02-01T06:35:25.936Z,25.80
2024-02-01T06:37:52.540Z,25.20
2024-02-01T06:40:19.068Z,24.60
2024-02-01T06:42:45.563Z,25.30
2024-02-01T06:45:12.043Z,24.70
2024-02-01T06:47:38.662Z,24.10
2024-02-01T06:50:05.339Z,24.90
2024-02-01T06:52:32.099Z,26.30
2024-02-01T06:54:58.574Z,26.30
2024-02-01T06:57:25.114Z,27.40
2024-02-01T06:59:51.761Z,26.70
2024-02-01T07:02:18.187Z,25.10
2024-02-01T07:04:44.641Z,24.50
2024-02-01T07:07:11.535Z,24.50
2024-02-01T07:09:38.127Z,23.70
2024-02-01T07:12:04.589Z,23.20
2024-02-01T07:14:31.010Z,23.20
2024-02-01T07:16:57.438Z,23.00
2024-02-01T07:19:24.142Z,22.90
2024-02-01T07:21:50.876Z,24.30
2024-02-01T07:24:17.385Z,23.20
2024-02-01T07:26:43.851Z,23.80
2024-02-01T07:29:10.295Z,23.20
2024-02-01T07:31:36.807Z,22.00
2024-02-01T07:34:03.474Z,22.00
2024-02-01T07:36:30.002Z,21.80
2024-02-01T07:38:56.457Z,20.40
2024-02-01T07:41:23.046Z,20.60
2024-02-01T07:43:49.453Z,21.20
2024-02-01T07:46:16.068Z,20.90
2024-02-01T07:48:42.630Z,21.50
2024-02-01T07:51:09.182Z,22.50
2024-02-01T07:53:35.680Z,21.80
2024-02-01T07:56:02.181Z,22.00
2024-02-01T07:58:28.577Z,20.90
2024-02-01T08:00:55.072Z,21.50
2024-02-01T08:03:21.735Z,21.50
2024-02-01T08:05:49.465Z,21.40
2024-02-01T08:08:15.994Z,21.50
2024-02-01T08:10:42.473Z,21.60
2024-02-01T08:13:08.928Z,22.50
2024-02-01T08:15:35.381Z,21.80
2024-02-01T08:18:01.965Z,21.70
2024-02-01T08:20:32.319Z,21.50
2024-02-01T08:22:59.966Z,21.30
2024-02-01T08:25:26.495Z,20.00
2024-02-01T08:27:52.979Z,21.10
2024-02-01T08:30:19.733Z,20.00
2024-02-01T08:32:46.408Z,20.20
2024-02-01T08:35:13.078Z,20.00
2024-02-01T08:37:39.689Z,19.90
2024-02-01T08:40:06.217Z,20.50
2024-02-01T08:42:34.482Z,19.90
2024-02-01T08:45:01.575Z,19.30
2024-02-01T08:47:28.055Z,19.70
2024-02-01T08:49:54.575Z,18.20
2024-02-01T08:52:21.145Z,17.50
2024-02-01T08:54:50.476Z,17.30
2024-02-01T08:57:17.442Z,19.00
2024-02-01T08:59:43.974Z,19.00
2024-02-01T09:02:10.452Z,20.00
2024-02-01T09:04:36.960Z,19.00
2024-02-01T09:07:03.653Z,19.10
2024-02-01T09:09:30.605Z,17.00
2024-02-01T09:11:57.446Z,18.70
2024-02-01T09:14:23.903Z,17.80
2024-02-01T09:16:50.341Z,17.00
2024-02-01T09:19:16.951Z,18.40
2024-02-01T09:21:43.650Z,17.20
2024-02-01T09:24:10.118Z,18.00
2024-02-01T09:26:36.601Z,17.40
2024-02-01T09:29:03.005Z,16.80
2024-02-01T09:31:29.519Z,17.30
2024-02-01T09:33:56.124Z,15.90
2024-02-01T09:36:22.759Z,15.70
2024-02-01T09:38:49.447Z,16.20
2024-02-01T09:41:16.037Z,16.50
2024-02-01T09:43:42.472Z,18.00
2024-02-01T09:46:08.890Z,17.30
2024-02-01T09:48:35.418Z,16.80
2024-02-01T09:51:02.000Z,17.20
2024-02-01T09:53:28.476Z,16.40
2024-02-01T09:55:54.899Z,15.90
2024-02-01T09:58:21.317Z,17.60
2024-02-01T10:00:47.776Z,16.10
2024-02-01T10:03:14.279Z,16.90
2024-02-01T10:05:40.889Z,16.80
2024-02-01T10:08:07.306Z,16.20
2024-02-01T10:10:33.727Z,16.40
2024-02-01T10:13:00.448Z,15.60
2024-02-01T10:15:26.913Z,15.30
2024-02-01T10:17:53.575Z,15.20
2024-02-01T10:20:20.398Z,14.30
2024-02-01T10:22:46.819Z,13.80
2024-02-01T10:25:13.240Z,15.90
2024-02-01T10:27:39.702Z,15.50
2024-02-01T10:30:06.267Z,15.70
2024-02-01T10:32:32.899Z,15.30
2024-02-01T10:34:59.440Z,14.50
2024-02-01T10:37:26.477Z,14.10
2024-02-01T10:39:52.966Z,13.40
2024-02-01T10:42:19.501Z,13.70
2024-02-01T10:44:46.003Z,13.70
2024-02-01T10:47:12.467Z,12.60
2024-02-01T10:49:39.299Z,11.70
2024-02-01T10:52:05.849Z,12.60
2024-02-01T10:54:33.599Z,11.90
2024-02-01T10:59:52.099Z,13.20
2024-02-01T11:02:18.580Z,13.10
2024-02-01T11:04:45.028Z,13.80
2024-02-01T11:07:18.660Z,11.90
2024-02-01T11:09:45.476Z,11.50
2024-02-01T11:12:12.107Z,11.10
2024-02-01T11:14:38.597Z,10.90
2024-02-01T11:17:05.294Z,10.30
2024-02-01T11:19:34.270Z,11.90
2024-02-01T11:22:03.269Z,12.40
2024-02-01T11:24:29.704Z,11.40
2024-02-01T11:26:56.486Z,11.10
2024-02-01T11:29:23.191Z,12.00
2024-02-01T11:31:52.248Z,13.90
2024-02-01T11:34:19.134Z,13.00
2024-02-01T11:36:45.747Z,12.50
2024-02-01T11:39:12.512Z,11.70
2024-02-01T11:41:39.007Z,12.50
2024-02-01T11:44:05.466Z,12.00
2024-02-01T11:46:31.921Z,10.80
2024-02-01T11:48:58.456Z,10.40
2024-02-01T11:51:25.171Z,10.80
2024-02-01T11:53:54.674Z,10.50
2024-02-01T11:56:21.119Z,11.90
2024-02-01T11:58:47.568Z,11.10
2024-02-01T12:01:16.704Z,11.20
2024-02-01T12:03:43.714Z,10.30
2024-02-01T12:06:10.212Z,9.70
2024-02-01T12:08:36.821Z,10.50
2024-02-01T12:11:03.269Z,11.00
2024-02-01T12:13:29.824Z,10.10
2024-02-01T12:15:56.359Z,10.90
2024-02-01T12:18:23.255Z,9.80
2024-02-01T12:20:50.071Z,9.40
2024-02-01T12:23:16.727Z,10.50
2024-02-01T12:25:43.132Z,10.10
2024-02-01T12:28:09.538Z,8.90
2024-02-01T12:30:35.997Z,8.60
2024-02-01T12:33:02.594Z,10.90
2024-02-01T12:35:29.159Z,8.80
2024-02-01T12:37:55.586Z,9.00
2024-02-01T12:40:22.109Z,8.80
2024-02-01T12:42:48.546Z,9.10
2024-02-01T12:45:15.159Z,9.40
2024-02-01T12:47:41.884Z,8.40
2024-02-01T12:50:08.464Z,7.90
2024-02-01T12:52:34.898Z,8.20
2024-02-01T12:55:01.627Z,8.20
2024-02-01T12:57:28.092Z,8.40
2024-02-01T12:59:54.750Z,8.10
2024-02-01T13:02:21.334Z,8.00
2024-02-01T13:04:47.865Z,7.70
2024-02-01T13:07:14.292Z,7.60
2024-02-01T13:09:40.728Z,7.60
2024-02-01T13:12:07.469Z,7.40
2024-02-01T13:14:36.745Z,7.00
2024-02-01T13:17:04.434Z,7.70
2024-02-01T13:19:30.926Z,7.60
2024-02-01T13:21:57.384Z,7.10
2024-02-01T13:24:24.016Z,7.70
2024-02-01T13:26:50.764Z,6.80
2024-02-01T13:29:17.350Z,7.40
2024-02-01T13:31:43.751Z,6.40
2024-02-01T13:34:10.344Z,7.00
2024-02-01T13:36:37.016Z,6.90
2024-02-01T13:39:03.472Z,7.00
2024-02-01T13:41:29.942Z,6.40
2024-02-01T13:43:58.765Z,7.00
2024-02-01T13:46:27.819Z,7.30
2024-02-01T13:48:54.338Z,6.30
2024-02-01T13:51:20.966Z,6.50
2024-02-01T13:53:47.436Z,5.70
2024-02-01T13:56:13.934Z,6.20
2024-02-01T13:58:40.385Z,6.10
2024-02-01T14:01:06.974Z,6.20
2024-02-01T14:03:33.680Z,5.80
2024-02-01T14:06:01.714Z,6.30
2024-02-01T14:08:28.303Z,5.70
2024-02-01T14:10:55.298Z,5.90
2024-02-01T14:13:21.806Z,5.80
2024-02-01T14:15:48.221Z,6.80
2024-02-01T14:18:14.727Z,6.70
2024-02-01T14:20:41.455Z,7.30
2024-02-01T14:23:08.378Z,6.50
2024-02-01T14:25:34.800Z,5.90
2024-02-01T14:28:01.214Z,6.50
2024-02-01T14:30:28.786Z,5.70
2024-02-01T14:32:55.360Z,5.20
2024-02-01T14:35:21.987Z,4.80
2024-02-01T14:37:48.424Z,4.70
2024-02-01T14:40:15.709Z,4.70
2024-02-01T14:42:42.472Z,5.20
2024-02-01T14:45:08.984Z,5.00
2024-02-01T14:47:35.606Z,5.00
2024-02-01T14:50:02.095Z,5.00
2024-02-01T14:52:28.502Z,5.20
2024-02-01T14:54:54.900Z,5.20
2024-02-01T14:57:21.412Z,6.80
2024-02-01T14:59:47.851Z,6.10
2024-02-01T15:02:14.259Z,5.00
2024-02-01T15:04:40.696Z,5.60
2024-02-01T15:07:07.184Z,5.00
2024-02-01T15:09:33.699Z,4.60
2024-02-01T15:12:00.251Z,4.80
2024-02-01T15:14:26.688Z,4.90
2024-02-01T15:16:53.102Z,5.40
2024-02-01T15:19:19.668Z,5.40
2024-02-01T15:21:46.276Z,4.90
2024-02-01T15:24:12.678Z,4.60
2024-02-01T15:26:39.096Z,5.60
2024-02-01T15:29:05.523Z,5.30
2024-02-01T15:31:31.931Z,5.20
2024-02-01T15:33:58.525Z,5.80
2024-02-01T15:36:25.202Z,5.80
2024-02-01T15:38:51.775Z,5.00
2024-02-01T15:41:18.255Z,6.10
2024-02-01T15:43:44.697Z,5.70
2024-02-01T15:46:11.124Z,6.40
2024-02-01T15:48:37.709Z,7.10
2024-02-01T15:51:04.415Z,6.50
2024-02-01T15:53:30.847Z,6.80
2024-02-01T15:55:57.278Z,7.10
2024-02-01T15:58:23.716Z,6.80
2024-02-01T16:00:50.160Z,6.80
2024-02-01T16:03:16.784Z,6.90
2024-02-01T16:05:43.332Z,6.40
2024-02-01T16:08:09.811Z,6.60
2024-02-01T16:10:36.247Z,6.80
2024-02-01T16:13:02.658Z,7.40
2024-02-01T16:15:29.152Z,6.50
2024-02-01T16:17:55.654Z,6.10
2024-02-01T16:20:22.123Z,6.10
2024-02-01T16:22:48.603Z,5.50
2024-02-01T16:25:15.049Z,5.90
2024-02-01T16:27:41.472Z,6.00
2024-02-01T16:30:08.420Z,7.30
2024-02-01T16:32:35.071Z,29.30
2024-02-01T16:35:01.566Z,6.10
2024-02-01T16:37:28.163Z,6.80
2024-02-01T16:39:54.582Z,6.50
2024-02-01T16:42:21.056Z,6.20
2024-02-01T16:44:47.726Z,6.30
2024-02-01T16:47:14.294Z,5.90
2024-02-01T16:49:41.156Z,6.80
2024-02-01T16:52:15.285Z,6.90
2024-02-01T16:54:44.941Z,7.80
2024-02-01T16:57:11.470Z,7.80
2024-02-01T16:59:37.940Z,8.60
2024-02-01T17:02:04.361Z,8.90
2024-02-01T17:04:31.041Z,8.30
2024-02-01T17:06:57.652Z,9.10
2024-02-01T17:09:24.437Z,8.00
2024-02-01T17:11:51.159Z,8.30
2024-02-01T17:14:17.559Z,7.60
2024-02-01T17:16:43.973Z,8.70
2024-02-01T17:19:10.513Z,9.20
2024-02-01T17:21:37.014Z,9.10
2024-02-01T17:24:05.342Z,9.90
2024-02-01T17:26:33.686Z,9.30
2024-02-01T17:29:00.148Z,9.20
2024-02-01T17:31:26.592Z,10.10
2024-02-01T17:33:53.402Z,10.80
2024-02-01T17:36:20.195Z,11.10
2024-02-01T17:38:46.730Z,11.40
2024-02-01T17:41:13.202Z,10.10
2024-02-01T17:43:39.661Z,9.70
2024-02-01T17:46:06.095Z,10.40
2024-02-01T17:48:32.602Z,9.80
2024-02-01T17:50:59.194Z,9.10
2024-02-01T17:53:25.667Z,9.90
2024-02-01T17:55:52.125Z,9.50
2024-02-01T17:58:18.548Z,10.90
2024-02-01T18:00:45.065Z,10.20
2024-02-01T18:03:11.530Z,9.90
2024-02-01T18:05:37.982Z,9.90
2024-02-01T18:08:04.521Z,9.90
2024-02-01T18:10:30.936Z,10.20
2024-02-01T18:12:57.381Z,10.40
2024-02-01T18:15:23.833Z,10.30
2024-02-01T18:17:50.371Z,10.40
2024-02-01T18:20:17.140Z,9.80
2024-02-01T18:22:43.569Z,11.40
2024-02-01T18:25:10.016Z,11.50
2024-02-01T18:27:36.451Z,12.10
2024-02-01T18:30:03.555Z,13.30
2024-02-01T18:32:30.422Z,11.90
2024-02-01T18:34:57.186Z,13.00
2024-02-01T18:37:23.908Z,15.10
2024-02-01T18:39:50.445Z,12.70
2024-02-01T18:42:16.937Z,13.40
2024-02-01T18:44:43.373Z,14.10
2024-02-01T18:47:09.857Z,12.80
2024-02-01T18:49:36.611Z,12.60
2024-02-01T18:52:03.228Z,14.70
2024-02-01T18:54:29.684Z,11.70
2024-02-01T18:56:56.151Z,12.60
2024-02-01T18:59:22.621Z,11.20
2024-02-01T19:01:49.078Z,11.00
2024-02-01T19:04:15.516Z,9.50
2024-02-01T19:06:41.997Z,8.80
2024-02-01T19:09:08.568Z,9.30
2024-02-01T19:11:35.116Z,9.30
2024-02-01T19:14:01.613Z,8.30
2024-02-01T19:16:28.189Z,9.60
2024-02-01T19:18:54.833Z,8.40
2024-02-01T19:21:22.349Z,9.00
2024-02-01T19:23:48.975Z,8.90
2024-02-01T19:26:15.419Z,9.30
2024-02-01T19:28:41.846Z,8.80
2024-02-01T19:31:08.286Z,8.60
2024-02-01T19:33:34.983Z,7.90
2024-02-01T19:36:01.557Z,7.80
2024-02-01T19:38:28.551Z,7.40
2024-02-01T19:40:55.071Z,7.50
2024-02-01T19:43:21.605Z,6.10
2024-02-01T19:45:48.020Z,6.80
2024-02-01T19:48:15.034Z,6.50
2024-02-01T19:50:41.679Z,7.00
2024-02-01T19:53:08.190Z,7.10
2024-02-01T19:55:34.624Z,6.80
2024-02-01T19:58:01.033Z,7.70
2024-02-01T20:00:27.716Z,7.10
2024-02-01T20:02:54.396Z,6.50
2024-02-01T20:05:20.949Z,6.40
2024-02-01T20:07:47.340Z,5.80
2024-02-01T20:10:13.889Z,5.60
2024-02-01T20:12:40.381Z,6.80
2024-02-01T20:15:06.800Z,6.10
2024-02-01T20:17:33.235Z,5.80
2024-02-01T20:19:59.735Z,6.20
2024-02-01T20:22:30.721Z,6.20
2024-02-01T20:24:57.141Z,7.10
2024-02-01T20:27:24.462Z,5.50
2024-02-01T20:29:51.095Z,5.90
2024-02-01T20:32:17.522Z,5.30
2024-02-01T20:34:43.984Z,5.50
2024-02-01T20:37:10.418Z,5.40
2024-02-01T20:39:36.835Z,4.90
2024-02-01T20:42:03.313Z,5.60
2024-02-01T20:44:29.769Z,6.80
2024-02-01T20:46:56.184Z,5.10
2024-02-01T20:49:22.723Z,4.70
2024-02-01T20:51:49.273Z,4.20
2024-02-01T20:54:15.833Z,4.50
2024-02-01T20:56:42.337Z,4.00
2024-02-01T20:59:08.777Z,4.20
2024-02-01T21:01:35.214Z,4.60
2024-02-01T21:04:01.672Z,4.60
2024-02-01T21:06:28.344Z,5.00
2024-02-01T21:08:55.093Z,3.90
2024-02-01T21:11:21.631Z,4.40
2024-02-01T21:13:48.042Z,4.30
2024-02-01T21:16:14.470Z,4.00
2024-02-01T21:18:41.016Z,4.40
2024-02-01T21:21:07.659Z,4.20
2024-02-01T21:23:34.220Z,4.00
2024-02-01T21:26:07.532Z,4.30
2024-02-01T21:28:34.601Z,4.30
2024-02-01T21:31:01.066Z,4.20
2024-02-01T21:33:27.578Z,4.30
2024-02-01T21:35:54.411Z,4.10
2024-02-01T21:38:20.919Z,4.30
2024-02-01T21:40:47.356Z,3.90
2024-02-01T21:43:13.789Z,4.00
2024-02-01T21:45:40.226Z,4.40
2024-02-01T21:48:07.129Z,4.00
2024-02-01T21:50:33.603Z,4.20
2024-02-01T21:53:00.050Z,5.30
2024-02-01T21:55:26.548Z,4.30
2024-02-01T21:57:53.095Z,4.00
2024-02-01T22:00:19.627Z,3.80
2024-02-01T22:02:46.142Z,3.70
2024-02-01T22:05:12.682Z,3.80
2024-02-01T22:07:39.123Z,4.20
2024-02-01T22:10:05.544Z,3.80
2024-02-01T22:12:32.001Z,4.10
2024-02-01T22:14:59.358Z,4.40
2024-02-01T22:17:25.994Z,4.40
2024-02-01T22:19:52.544Z,4.70
2024-02-01T22:22:19.034Z,5.10
2024-02-01T22:24:45.455Z,6.90
2024-02-01T22:27:12.218Z,108.10
2024-02-01T22:29:38.748Z,5.40
2024-02-01T22:32:05.184Z,5.10
2024-02-01T22:34:31.685Z,6.20
2024-02-01T22:36:58.181Z,6.30
2024-02-01T22:39:24.689Z,5.60
2024-02-01T22:41:51.164Z,4.10
2024-02-01T22:44:17.608Z,3.90
2024-02-01T22:46:44.045Z,3.50
2024-02-01T22:49:10.859Z,2.90
2024-02-01T22:51:37.532Z,2.00
2024-02-01T22:54:04.168Z,1.40
2024-02-01T22:56:30.750Z,1.50
2024-02-01T22:58:57.148Z,1.10
2024-02-01T23:01:23.582Z,1.90
2024-02-01T23:03:50.144Z,1.90
2024-02-01T23:06:16.718Z,2.00
2024-02-01T23:08:43.198Z,2.40
2024-02-01T23:11:09.841Z,2.20
2024-02-01T23:13:36.257Z,2.60
2024-02-01T23:16:02.703Z,1.80
2024-02-01T23:18:29.248Z,2.30
2024-02-01T23:20:56.018Z,2.00
2024-02-01T23:23:23.033Z,2.80
2024-02-01T23:25:49.442Z,2.00
2024-02-01T23:28:15.955Z,2.30
2024-02-01T23:30:42.419Z,2.00
2024-02-01T23:33:08.975Z,2.80
2024-02-01T23:35:35.518Z,2.40
2024-02-01T23:38:01.980Z,2.60
2024-02-01T23:40:28.404Z,2.60
2024-02-01T23:42:54.842Z,2.70
2024-02-01T23:45:21.286Z,2.60
2024-02-01T23:47:47.828Z,3.60
2024-02-01T23:50:14.401Z,2.30
2024-02-01T23:52:40.834Z,2.50
2024-02-01T23:55:07.271Z,2.50
2024-02-01T23:57:33.763Z,2.60
